Time;durP1;ratioP1;P1;durP2;ratioP2;P2;SDS_P1;SDS_P2;PMS_P1;PMS_P2;Temp;Humidity;BMP_temperature;BMP_pressure;BME280_temperature;BME280_humidity;BME280_pressure;Samples;Min_cycle;Max_cycle;Signal;HPM_P1;HPM_P2
2022/07/27 00:01:12;;;;;;;3.15;1.00;;;27.30;72.70;;;;;;5034936;28;20419;-25
2022/07/27 00:03:39;;;;;;;1.13;0.80;;;27.30;72.70;;;;;;5035254;28;20053;-25
2022/07/27 00:06:05;;;;;;;0.93;0.75;;;27.30;72.80;;;;;;5035027;28;20054;-25
2022/07/27 00:08:31;;;;;;;1.95;0.70;;;27.30;72.80;;;;;;5035474;28;20031;-25
2022/07/27 00:10:57;;;;;;;1.50;0.80;;;27.30;72.80;;;;;;5035030;28;20104;-25
2022/07/27 00:13:23;;;;;;;0.85;0.60;;;27.30;72.90;;;;;;5017293;28;20068;-25
2022/07/27 00:15:49;;;;;;;1.58;0.80;;;27.30;72.90;;;;;;5035149;28;20025;-25
2022/07/27 00:18:14;;;;;;;1.83;0.88;;;27.30;72.90;;;;;;5034729;28;20032;-25
2022/07/27 00:20:40;;;;;;;2.53;1.10;;;27.20;72.90;;;;;;5034840;28;20032;-24
2022/07/27 00:23:06;;;;;;;2.35;0.80;;;27.30;72.90;;;;;;5034790;28;20036;-24
2022/07/27 00:25:32;;;;;;;2.30;0.60;;;27.20;72.90;;;;;;5017027;28;20514;-24
2022/07/27 00:27:58;;;;;;;1.88;0.70;;;27.30;73.00;;;;;;5034587;28;20021;-24
2022/07/27 00:30:24;;;;;;;0.80;0.68;;;27.20;72.90;;;;;;5034548;28;20390;-25
2022/07/27 00:32:50;;;;;;;4.22;0.85;;;27.20;73.70;;;;;;5034687;28;20483;-24
2022/07/27 00:35:16;;;;;;;2.50;1.08;;;27.20;72.90;;;;;;5034717;28;20024;-24
2022/07/27 00:37:42;;;;;;;3.30;1.05;;;27.20;72.90;;;;;;5034766;28;20104;-24
2022/07/27 00:40:09;;;;;;;1.45;0.70;;;27.20;73.00;;;;;;5034326;28;20033;-24
2022/07/27 00:42:35;;;;;;;1.20;0.85;;;27.20;73.00;;;;;;5036219;28;20033;-24
2022/07/27 00:45:02;;;;;;;1.08;0.80;;;27.20;73.00;;;;;;5036416;28;20047;-24
2022/07/27 00:47:27;;;;;;;1.48;0.88;;;27.20;73.00;;;;;;5034522;28;20363;-24
2022/07/27 00:49:53;;;;;;;3.35;0.85;;;27.20;73.10;;;;;;5037465;28;20105;-24
2022/07/27 00:52:21;;;;;;;2.35;0.90;;;27.20;73.10;;;;;;5037717;28;20144;-24
2022/07/27 00:54:46;;;;;;;1.77;0.90;;;27.20;73.10;;;;;;5036008;28;20033;-24
2022/07/27 00:57:13;;;;;;;2.72;1.05;;;27.20;73.10;;;;;;5035265;28;20022;-24
2022/07/27 00:59:40;;;;;;;1.98;0.70;;;27.20;73.10;;;;;;5034080;28;20490;-24
2022/07/27 01:02:08;;;;;;;2.40;0.90;;;27.20;73.20;;;;;;5034379;28;20029;-24
2022/07/27 01:04:34;;;;;;;1.90;0.90;;;27.10;73.10;;;;;;5034177;28;20549;-24
2022/07/27 01:07:02;;;;;;;1.77;0.90;;;27.10;73.10;;;;;;5034175;28;20435;-24
2022/07/27 01:12:16;;;;;;;1.88;0.80;;;27.10;73.30;;;;;;5034403;28;20029;-24
2022/07/27 01:14:42;;;;;;;2.63;1.10;;;27.10;73.30;;;;;;5034088;28;20014;-24
2022/07/27 01:17:08;;;;;;;2.20;0.80;;;27.10;73.30;;;;;;5034057;28;20387;-24
2022/07/27 01:19:34;;;;;;;1.45;0.80;;;27.10;73.40;;;;;;5033859;28;20095;-24
2022/07/27 01:22:02;;;;;;;2.17;0.90;;;27.10;73.40;;;;;;5034529;28;20075;-24
2022/07/27 01:24:27;;;;;;;1.67;0.80;;;27.10;73.40;;;;;;5033660;28;20470;-24
2022/07/27 01:26:53;;;;;;;1.67;1.00;;;27.10;73.30;;;;;;5033880;28;20033;-24
2022/07/27 01:29:19;;;;;;;1.35;0.80;;;27.10;73.40;;;;;;5033633;28;20045;-24
2022/07/27 01:31:44;;;;;;;1.88;1.00;;;27.10;73.40;;;;;;5033585;28;20033;-24
2022/07/27 01:34:10;;;;;;;3.35;1.15;;;27.10;73.50;;;;;;5033787;28;20032;-24
2022/07/27 01:36:36;;;;;;;2.53;1.00;;;27.10;73.50;;;;;;5033769;28;20461;-24
2022/07/27 01:39:02;;;;;;;2.00;0.90;;;27.10;73.40;;;;;;5033846;28;20029;-24
2022/07/27 01:41:28;;;;;;;1.75;0.85;;;27.00;73.40;;;;;;5033564;28;20521;-24
2022/07/27 01:43:54;;;;;;;1.70;0.88;;;27.00;73.50;;;;;;5033511;28;20041;-24
2022/07/27 01:46:19;;;;;;;1.92;1.00;;;27.00;73.50;;;;;;5033560;28;20052;-24
2022/07/27 01:48:45;;;;;;;2.85;0.90;;;27.00;73.50;;;;;;5033335;28;20022;-24
2022/07/27 01:51:11;;;;;;;3.85;1.13;;;27.00;73.50;;;;;;5033461;28;20034;-24
2022/07/27 01:53:37;;;;;;;1.98;0.93;;;27.00;73.60;;;;;;5033344;28;20021;-24
2022/07/27 01:56:02;;;;;;;2.10;1.00;;;27.00;73.70;;;;;;5033345;28;20087;-24
2022/07/27 01:58:28;;;;;;;1.75;0.90;;;27.00;73.70;;;;;;5033371;28;20392;-24
2022/07/27 02:00:54;;;;;;;2.38;1.17;;;26.90;73.70;;;;;;5033260;28;20032;-24
2022/07/27 02:03:19;;;;;;;1.75;1.00;;;27.00;73.70;;;;;;5033370;28;20033;-24
2022/07/27 02:05:45;;;;;;;1.35;1.00;;;27.00;73.90;;;;;;5033365;28;20109;-24
2022/07/27 02:08:12;;;;;;;1.45;0.85;;;26.90;73.70;;;;;;5032564;28;20025;-24
2022/07/27 02:12:34;;;;;;;1.92;0.90;;;27.00;73.80;;;;;;5033031;28;20029;-24
2022/07/27 02:13:24;;;;;;;1.77;0.90;;;26.90;73.80;;;;;;5033285;28;20028;-24
2022/07/27 02:15:49;;;;;;;2.65;1.10;;;26.90;73.90;;;;;;5033339;28;20022;-24
2022/07/27 02:18:15;;;;;;;3.25;0.90;;;26.90;73.90;;;;;;5033541;28;20034;-24
2022/07/27 02:20:41;;;;;;;3.53;1.20;;;26.90;73.90;;;;;;5032359;28;20482;-25
2022/07/27 02:23:07;;;;;;;1.30;0.80;;;26.90;74.00;;;;;;5033531;28;20479;-25
2022/07/27 02:25:34;;;;;;;2.83;0.90;;;26.90;74.00;;;;;;5033171;28;20026;-25
2022/07/27 02:28:01;;;;;;;1.55;0.98;;;26.90;74.00;;;;;;5015033;28;20107;-24
2022/07/27 02:30:27;;;;;;;1.58;1.00;;;26.90;74.00;;;;;;5033011;28;20035;-24
2022/07/27 02:32:53;;;;;;;1.92;0.77;;;26.90;74.10;;;;;;5032742;28;20035;-24
2022/07/27 02:35:19;;;;;;;1.30;0.80;;;26.90;74.10;;;;;;5033237;28;20022;-24
2022/07/27 02:37:44;;;;;;;3.22;1.20;;;26.90;74.20;;;;;;5032722;28;20029;-24
2022/07/27 02:40:11;;;;;;;2.03;1.10;;;26.80;74.10;;;;;;5032792;28;20100;-25
2022/07/27 02:42:37;;;;;;;4.15;0.90;;;26.80;74.20;;;;;;5033142;28;20297;-25
2022/07/27 02:45:03;;;;;;;1.75;1.02;;;26.90;74.20;;;;;;5015022;28;20477;-25
2022/07/27 02:47:29;;;;;;;4.00;1.13;;;26.80;74.10;;;;;;5032463;28;20033;-25
2022/07/27 02:49:55;;;;;;;1.35;0.80;;;26.80;74.20;;;;;;5014901;28;20021;-25
2022/07/27 02:52:20;;;;;;;2.72;1.10;;;26.80;74.20;;;;;;5032637;28;20467;-25
2022/07/27 02:54:46;;;;;;;1.48;1.10;;;26.80;74.20;;;;;;5032735;28;20083;-25
2022/07/27 02:57:11;;;;;;;3.33;1.02;;;26.80;74.20;;;;;;5032966;28;20390;-25
2022/07/27 02:59:37;;;;;;;1.95;1.00;;;26.80;74.20;;;;;;5032868;28;20485;-25
2022/07/27 03:02:03;;;;;;;1.05;0.95;;;26.80;74.20;;;;;;5014971;28;20033;-25
2022/07/27 03:04:28;;;;;;;1.25;1.00;;;26.80;74.20;;;;;;5032572;28;20041;-25
2022/07/27 03:06:54;;;;;;;2.65;1.10;;;26.80;74.20;;;;;;5032398;28;20033;-25
2022/07/27 03:09:20;;;;;;;2.13;1.20;;;26.80;74.30;;;;;;5032864;28;20139;-24
2022/07/27 03:11:45;;;;;;;2.22;1.20;;;26.80;74.30;;;;;;5032761;28;20051;-24
2022/07/27 03:14:11;;;;;;;1.50;1.05;;;26.80;74.30;;;;;;5033525;28;20018;-24
2022/07/27 03:16:38;;;;;;;1.88;1.05;;;26.80;74.40;;;;;;5015126;28;20389;-24
2022/07/27 03:19:05;;;;;;;1.67;1.00;;;26.80;74.40;;;;;;5032833;28;20041;-24
2022/07/27 03:21:30;;;;;;;2.42;1.05;;;26.70;74.40;;;;;;5035969;28;20415;-25
2022/07/27 03:23:56;;;;;;;3.10;1.23;;;26.70;74.40;;;;;;5036570;28;20022;-25
2022/07/27 03:26:22;;;;;;;3.20;1.10;;;26.70;74.40;;;;;;5036537;28;20479;-25
2022/07/27 03:28:47;;;;;;;2.53;1.08;;;26.70;74.40;;;;;;5036167;28;20018;-25
2022/07/27 03:31:13;;;;;;;2.63;1.10;;;26.70;74.40;;;;;;5035824;28;20037;-25
2022/07/27 03:33:39;;;;;;;3.58;1.13;;;26.70;74.50;;;;;;5036016;28;20136;-25
2022/07/27 03:36:06;;;;;;;3.15;1.30;;;26.70;74.60;;;;;;5036097;28;20057;-25
2022/07/27 03:38:31;;;;;;;2.58;1.05;;;26.70;74.60;;;;;;5018061;28;20116;-25
2022/07/27 03:40:58;;;;;;;2.58;1.10;;;26.70;74.60;;;;;;5035815;28;20045;-25
2022/07/27 03:43:24;;;;;;;1.80;1.20;;;26.70;74.60;;;;;;5036170;28;20104;-25
2022/07/27 03:45:50;;;;;;;4.65;1.20;;;26.70;74.70;;;;;;5035861;28;20104;-25
2022/07/27 03:48:16;;;;;;;3.85;1.10;;;26.60;74.70;;;;;;5037323;28;20033;-25
2022/07/27 03:50:41;;;;;;;1.40;1.00;;;26.70;74.80;;;;;;5038475;28;20030;-25
2022/07/27 03:53:08;;;;;;;3.33;1.10;;;26.60;74.70;;;;;;5037891;28;20029;-25
2022/07/27 03:55:33;;;;;;;2.75;1.10;;;26.60;74.80;;;;;;5017925;28;20376;-25
2022/07/27 03:57:59;;;;;;;2.05;1.15;;;26.60;74.80;;;;;;5036441;28;20086;-24
2022/07/27 04:00:25;;;;;;;3.33;1.45;;;26.60;74.80;;;;;;5036842;28;20057;-24
2022/07/27 04:02:51;;;;;;;2.65;1.20;;;26.60;74.80;;;;;;5036379;28;20387;-25
2022/07/27 04:05:19;;;;;;;2.50;1.23;;;26.60;74.80;;;;;;5036208;28;20486;-25
2022/07/27 04:07:45;;;;;;;2.10;1.13;;;26.60;74.90;;;;;;5035276;28;20029;-25
2022/07/27 04:10:10;;;;;;;1.38;1.10;;;26.60;74.90;;;;;;5035416;28;20052;-25
2022/07/27 04:12:37;;;;;;;2.78;1.15;;;26.60;74.90;;;;;;5034858;28;20025;-25
2022/07/27 04:15:04;;;;;;;3.03;1.02;;;26.50;74.90;;;;;;5035943;28;20481;-25
2022/07/27 04:17:29;;;;;;;4.57;1.10;;;26.50;74.90;;;;;;5035549;28;20083;-25
2022/07/27 04:19:55;;;;;;;2.35;1.17;;;26.50;74.90;;;;;;5035454;28;20033;-25
2022/07/27 04:22:21;;;;;;;4.45;1.38;;;26.60;75.00;;;;;;5035871;28;20032;-24
2022/07/27 04:24:46;;;;;;;2.47;1.20;;;26.60;75.90;;;;;;5035809;28;20026;-24
2022/07/27 04:27:12;;;;;;;2.22;1.10;;;26.50;75.00;;;;;;5034993;28;20463;-24
2022/07/27 04:29:38;;;;;;;1.80;1.20;;;26.50;75.10;;;;;;5017140;28;20029;-24
2022/07/27 04:32:04;;;;;;;3.03;1.20;;;26.50;75.10;;;;;;5034904;28;20421;-24
2022/07/27 04:34:30;;;;;;;2.28;1.10;;;26.50;75.10;;;;;;5018278;28;20411;-25
2022/07/27 04:36:56;;;;;;;3.10;1.45;;;26.50;75.20;;;;;;5034561;28;20037;-25
2022/07/27 04:39:21;;;;;;;2.58;1.20;;;26.40;75.10;;;;;;5034641;28;20052;-24
2022/07/27 04:41:47;;;;;;;2.75;0.90;;;26.40;75.20;;;;;;5034647;28;20036;-25
2022/07/27 04:44:13;;;;;;;2.65;1.27;;;26.40;75.20;;;;;;5034173;28;20028;-25
2022/07/27 04:46:39;;;;;;;2.35;1.38;;;26.50;75.30;;;;;;5034784;28;20035;-25
2022/07/27 04:49:05;;;;;;;2.47;1.13;;;26.50;75.40;;;;;;5034953;28;20505;-25
2022/07/27 04:51:31;;;;;;;3.92;1.05;;;26.50;75.40;;;;;;5034766;28;20447;-25
2022/07/27 04:53:57;;;;;;;1.42;1.10;;;26.40;75.40;;;;;;5035147;28;20103;-25
2022/07/27 04:56:23;;;;;;;3.33;1.20;;;26.40;75.40;;;;;;5034628;28;20422;-25
2022/07/27 04:58:49;;;;;;;2.30;1.20;;;26.40;75.50;;;;;;5034205;28;20056;-25
2022/07/27 05:01:14;;;;;;;2.28;1.10;;;26.40;75.50;;;;;;5034550;28;20036;-24
2022/07/27 05:03:41;;;;;;;3.13;1.40;;;26.40;75.50;;;;;;5017139;28;20479;-25
2022/07/27 05:06:08;;;;;;;1.80;1.00;;;26.40;75.50;;;;;;5034414;28;20363;-25
2022/07/27 05:08:34;;;;;;;2.63;1.30;;;26.40;75.60;;;;;;5016453;28;20025;-25
2022/07/27 05:11:00;;;;;;;2.17;1.38;;;26.40;75.70;;;;;;5016501;28;20026;-24
2022/07/27 05:13:25;;;;;;;3.00;1.23;;;26.30;75.60;;;;;;5034732;28;20018;-24
2022/07/27 05:15:51;;;;;;;2.33;1.10;;;26.40;75.70;;;;;;5034385;28;20514;-24
2022/07/27 05:18:17;;;;;;;1.63;1.13;;;26.30;75.70;;;;;;5033932;28;20022;-24
2022/07/27 05:20:44;;;;;;;1.80;1.20;;;26.40;75.90;;;;;;5016213;28;20571;-24
2022/07/27 05:23:10;;;;;;;3.58;1.20;;;26.30;75.70;;;;;;5034347;28;20021;-24
2022/07/27 05:25:36;;;;;;;3.47;1.30;;;26.40;75.90;;;;;;5034301;28;20383;-24
2022/07/27 05:28:01;;;;;;;1.70;0.93;;;26.30;75.90;;;;;;5033986;28;20014;-24
2022/07/27 05:30:27;;;;;;;3.70;1.17;;;26.30;75.90;;;;;;5056689;22;20049;-27
2022/07/27 05:32:53;;;;;;;2.95;1.15;;;26.30;76.00;;;;;;5015741;28;20029;-27
2022/07/27 05:35:19;;;;;;;1.67;1.08;;;26.40;76.00;;;;;;5033388;28;20053;-26
2022/07/27 05:37:45;;;;;;;2.03;1.23;;;26.30;76.00;;;;;;5033144;28;20032;-27
2022/07/27 05:40:11;;;;;;;3.28;1.10;;;26.30;76.00;;;;;;5032915;28;20037;-26
2022/07/27 05:42:40;;;;;;;2.00;1.15;;;26.30;76.10;;;;;;5032438;28;20459;-26
2022/07/27 05:45:06;;;;;;;3.75;1.45;;;26.30;76.10;;;;;;5033156;28;20245;-27
2022/07/27 05:47:31;;;;;;;2.20;1.20;;;26.30;76.20;;;;;;5032904;28;20558;-27
2022/07/27 05:49:57;;;;;;;1.70;1.17;;;26.30;76.30;;;;;;5032738;28;20067;-27
2022/07/27 05:52:26;;;;;;;2.63;1.38;;;26.30;76.30;;;;;;5032997;28;20109;-27
2022/07/27 05:54:51;;;;;;;3.97;1.20;;;26.30;76.40;;;;;;5032818;28;20040;-27
2022/07/27 05:57:17;;;;;;;2.47;1.20;;;26.30;76.40;;;;;;5032772;28;20108;-27
2022/07/27 05:59:42;;;;;;;1.88;1.05;;;26.30;76.40;;;;;;5032631;28;20540;-27
2022/07/27 06:02:08;;;;;;;2.67;1.35;;;26.30;76.40;;;;;;5032679;28;20101;-27
2022/07/27 06:04:35;;;;;;;1.90;1.20;;;26.30;76.40;;;;;;5032760;28;20033;-26
2022/07/27 06:09:45;;;;;;;1.73;1.13;;;26.30;76.60;;;;;;5032311;28;20032;-27
2022/07/27 06:12:11;;;;;;;2.15;1.17;;;26.30;76.50;;;;;;5032754;28;20022;-27
2022/07/27 06:14:37;;;;;;;3.55;1.40;;;26.30;76.60;;;;;;5032540;28;20398;-27
2022/07/27 06:17:03;;;;;;;2.38;1.25;;;26.30;76.60;;;;;;5032486;28;20466;-27
2022/07/27 06:19:30;;;;;;;3.08;1.10;;;26.30;76.60;;;;;;5032276;28;20040;-27
2022/07/27 06:21:56;;;;;;;1.40;1.15;;;26.30;76.80;;;;;;5032418;28;20018;-26
2022/07/27 06:24:22;;;;;;;3.22;1.30;;;26.30;76.80;;;;;;5032527;28;20489;-26
2022/07/27 06:26:47;;;;;;;1.98;1.08;;;26.30;76.70;;;;;;5032306;28;20065;-27
2022/07/27 06:29:14;;;;;;;2.20;1.10;;;26.30;76.80;;;;;;5032162;28;20045;-26
2022/07/27 06:31:39;;;;;;;1.77;1.08;;;26.30;76.80;;;;;;5032071;28;20088;-26
2022/07/27 06:34:05;;;;;;;3.00;1.10;;;26.30;77.60;;;;;;5032629;28;20018;-27
2022/07/27 06:36:31;;;;;;;1.98;1.23;;;26.30;76.90;;;;;;5032163;28;20034;-26
2022/07/27 06:38:56;;;;;;;2.88;1.10;;;26.30;77.00;;;;;;5031866;28;20061;-27
2022/07/27 06:41:22;;;;;;;2.10;0.98;;;26.30;77.00;;;;;;5032054;28;20385;-26
2022/07/27 06:43:48;;;;;;;1.33;1.00;;;26.30;77.00;;;;;;5032143;28;20029;-27
2022/07/27 06:46:14;;;;;;;3.30;1.30;;;26.30;77.00;;;;;;5032039;28;20025;-26
2022/07/27 06:48:40;;;;;;;6.63;1.23;;;26.30;77.20;;;;;;5031868;28;20104;-26
2022/07/27 06:51:06;;;;;;;6.63;1.48;;;25.90;78.30;;;;;;5031933;28;20022;-26
2022/07/27 06:53:32;;;;;;;4.07;1.40;;;25.80;78.60;;;;;;5031769;28;20022;-27
2022/07/27 06:56:02;;;;;;;5.38;1.30;;;25.80;78.70;;;;;;5031900;28;20029;-26
2022/07/27 06:58:32;;;;;;;3.42;1.45;;;25.90;78.50;;;;;;5031665;28;20390;-27
2022/07/27 07:01:00;;;;;;;6.85;1.50;;;25.90;78.30;;;;;;5031834;28;20056;-26
2022/07/27 07:03:29;;;;;;;4.65;1.33;;;26.00;78.20;;;;;;5031923;28;20418;-26
2022/07/27 07:05:55;;;;;;;4.95;1.30;;;26.00;78.10;;;;;;5031639;28;20025;-26
2022/07/27 07:08:21;;;;;;;5.82;1.15;;;26.10;78.00;;;;;;5031563;28;20386;-27
2022/07/27 07:10:48;;;;;;;4.45;1.10;;;26.10;77.90;;;;;;5031659;28;20108;-26
2022/07/27 07:13:14;;;;;;;4.90;1.40;;;26.10;77.80;;;;;;5032111;28;20029;-27
2022/07/27 07:15:42;;;;;;;2.45;1.15;;;26.20;77.80;;;;;;5031794;28;20487;-26
2022/07/27 07:18:09;;;;;;;3.78;1.30;;;26.20;77.70;;;;;;5031491;28;20061;-26
2022/07/27 07:20:35;;;;;;;3.13;1.27;;;26.20;77.70;;;;;;5031539;28;20052;-26
2022/07/27 07:23:02;;;;;;;4.38;1.25;;;26.20;77.70;;;;;;5031625;28;20100;-25
2022/07/27 07:25:28;;;;;;;2.50;1.17;;;26.20;77.60;;;;;;5031715;28;20022;-26
2022/07/27 07:27:54;;;;;;;3.13;1.20;;;26.20;77.70;;;;;;5031624;28;20436;-26
2022/07/27 07:30:22;;;;;;;2.05;1.13;;;26.30;77.80;;;;;;5031680;28;20117;-26
2022/07/27 07:32:48;;;;;;;4.57;1.10;;;26.20;77.80;;;;;;5031848;28;20037;-26
2022/07/27 07:35:14;;;;;;;2.28;1.08;;;26.30;77.80;;;;;;5031648;28;20333;-26
2022/07/27 07:37:39;;;;;;;3.55;0.80;;;26.30;77.80;;;;;;5031550;28;20026;-27
2022/07/27 07:40:07;;;;;;;2.78;0.93;;;26.30;77.80;;;;;;5031367;28;20096;-26
2022/07/27 07:42:58;;;;;;;2.70;1.13;;;26.30;77.80;;;;;;5031588;28;20489;-26
2022/07/27 07:45:25;;;;;;;2.38;1.00;;;26.30;77.80;;;;;;5031418;28;20029;-26
2022/07/27 07:47:51;;;;;;;4.00;1.27;;;26.30;77.80;;;;;;5031561;28;20112;-26
2022/07/27 07:50:18;;;;;;;3.63;1.08;;;26.30;77.80;;;;;;5031216;28;20029;-26
2022/07/27 07:52:44;;;;;;;3.25;1.10;;;26.30;77.80;;;;;;5031441;28;20029;-26
2022/07/27 07:55:10;;;;;;;2.72;1.00;;;26.30;77.80;;;;;;5031437;28;20108;-26
2022/07/27 07:57:35;;;;;;;3.45;1.30;;;26.30;77.80;;;;;;5031454;28;20109;-26
2022/07/27 08:00:03;;;;;;;1.50;0.90;;;26.30;77.80;;;;;;5013375;28;20033;-26
2022/07/27 08:02:29;;;;;;;3.03;0.95;;;26.40;77.80;;;;;;5031301;28;20029;-26
2022/07/27 08:04:54;;;;;;;1.65;1.00;;;26.40;77.90;;;;;;5031315;28;20398;-28
2022/07/27 08:07:20;;;;;;;1.35;0.90;;;26.30;77.80;;;;;;5033765;28;20506;-26
2022/07/27 08:09:46;;;;;;;4.18;1.27;;;26.40;77.90;;;;;;5034600;28;20064;-26
2022/07/27 08:12:11;;;;;;;3.83;1.02;;;26.30;77.90;;;;;;5034848;28;20029;-26
2022/07/27 08:14:37;;;;;;;3.67;1.58;;;26.30;78.00;;;;;;5034616;28;20025;-27
2022/07/27 08:17:03;;;;;;;5.22;1.20;;;26.30;78.00;;;;;;5034800;28;20437;-27
2022/07/27 08:19:28;;;;;;;1.27;0.85;;;26.30;78.80;;;;;;5034455;28;20562;-26
2022/07/27 08:21:54;;;;;;;3.17;1.00;;;26.30;78.00;;;;;;5034599;28;20022;-26
2022/07/27 08:24:20;;;;;;;3.58;1.45;;;26.30;78.10;;;;;;5034728;28;20025;-26
2022/07/27 08:26:45;;;;;;;1.75;1.05;;;26.30;78.10;;;;;;5034469;28;20029;-27
2022/07/27 08:29:11;;;;;;;2.22;0.90;;;26.30;78.00;;;;;;5034152;28;20525;-26
2022/07/27 08:31:36;;;;;;;3.65;1.05;;;26.40;78.10;;;;;;5016672;28;20044;-26
2022/07/27 08:34:02;;;;;;;2.08;1.20;;;26.30;78.10;;;;;;5034584;28;20029;-26
2022/07/27 08:36:28;;;;;;;4.88;1.00;;;26.30;78.10;;;;;;5034376;28;20033;-26
2022/07/27 08:38:53;;;;;;;1.20;0.90;;;26.30;78.10;;;;;;5034485;28;20025;-26
2022/07/27 08:41:24;;;;;;;1.70;1.20;;;26.40;78.20;;;;;;5034254;28;20033;-26
2022/07/27 08:43:51;;;;;;;1.83;1.00;;;26.40;78.20;;;;;;5034166;28;20096;-26
2022/07/27 08:46:17;;;;;;;3.72;1.30;;;26.40;78.10;;;;;;5016715;28;20422;-26
2022/07/27 08:48:43;;;;;;;2.22;1.05;;;26.50;78.20;;;;;;5033911;28;20452;-26
2022/07/27 08:51:10;;;;;;;3.15;1.20;;;26.40;78.10;;;;;;5034199;28;20018;-26
2022/07/27 08:53:36;;;;;;;2.30;1.20;;;26.50;78.10;;;;;;5034113;28;20486;-26
2022/07/27 08:56:02;;;;;;;5.45;1.40;;;26.50;78.10;;;;;;5034018;28;20029;-26
2022/07/27 08:58:28;;;;;;;4.47;1.60;;;26.50;78.30;;;;;;5033561;28;20068;-26
2022/07/27 09:00:54;;;;;;;4.68;1.35;;;26.30;79.00;;;;;;5033862;28;20443;-26
2022/07/27 09:03:21;;;;;;;4.60;1.60;;;26.10;79.30;;;;;;5034120;28;20052;-26
2022/07/27 09:05:57;;;;;;;5.13;1.27;;;26.20;79.50;;;;;;5033743;28;20036;-26
2022/07/27 09:08:27;;;;;;;3.20;1.25;;;26.30;79.30;;;;;;5033620;28;20025;-27
2022/07/27 09:10:55;;;;;;;2.30;1.13;;;26.40;79.10;;;;;;5033560;28;20025;-26
2022/07/27 09:13:20;;;;;;;3.70;1.30;;;26.50;79.00;;;;;;5033694;28;20021;-26
2022/07/27 09:15:57;;;;;;;3.92;1.50;;;26.50;78.80;;;;;;5033724;28;20554;-26
2022/07/27 09:18:29;;;;;;;2.40;1.25;;;26.60;78.80;;;;;;5033410;28;20022;-27
2022/07/27 09:21:21;;;;;;;3.60;1.48;;;26.60;78.70;;;;;;5033568;28;20487;-25
2022/07/27 09:24:05;;;;;;;3.95;1.42;;;26.60;78.60;;;;;;5033590;28;20120;-26
2022/07/27 09:26:31;;;;;;;2.70;1.30;;;26.60;78.50;;;;;;5033386;28;20029;-26
2022/07/27 09:29:07;;;;;;;2.63;1.13;;;26.70;78.60;;;;;;5033192;28;20116;-26
2022/07/27 09:31:59;;;;;;;2.65;1.23;;;26.70;78.60;;;;;;5033125;28;20056;-26
2022/07/27 09:34:30;;;;;;;3.85;1.40;;;26.70;78.40;;;;;;5030260;28;20056;-26
2022/07/27 09:36:57;;;;;;;2.58;1.30;;;26.70;78.40;;;;;;5033265;28;20129;-25
2022/07/27 09:39:25;;;;;;;3.67;1.10;;;26.70;78.40;;;;;;5015173;28;20087;-26
2022/07/27 09:41:56;;;;;;;4.28;1.33;;;26.70;78.30;;;;;;5033524;28;20382;-25
2022/07/27 09:44:41;;;;;;;3.15;1.38;;;26.70;78.30;;;;;;5033060;28;20064;-26
2022/07/27 09:47:25;;;;;;;2.38;1.23;;;26.80;78.40;;;;;;5033096;28;20113;-26
2022/07/27 09:49:52;;;;;;;2.28;1.10;;;26.70;78.30;;;;;;5032820;28;20027;-26
2022/07/27 09:52:36;;;;;;;2.63;1.30;;;26.80;78.40;;;;;;5032978;28;20034;-26
2022/07/27 09:55:04;;;;;;;5.57;1.15;;;26.80;78.40;;;;;;5032945;28;20022;-26
2022/07/27 09:57:30;;;;;;;2.15;1.00;;;26.70;78.40;;;;;;5033026;28;20071;-26
2022/07/27 10:00:12;;;;;;;7.30;1.40;;;26.80;78.40;;;;;;5032653;28;20025;-26
2022/07/27 10:02:39;;;;;;;1.55;1.10;;;26.80;78.30;;;;;;5032747;28;20029;-26
2022/07/27 10:05:06;;;;;;;1.42;1.00;;;26.80;78.30;;;;;;5032634;28;20021;-26
2022/07/27 10:07:32;;;;;;;2.70;1.20;;;26.80;78.30;;;;;;5014910;28;20382;-26
2022/07/27 10:10:00;;;;;;;1.92;1.30;;;26.80;78.30;;;;;;5032443;28;20425;-26
2022/07/27 10:12:28;;;;;;;2.75;1.10;;;26.80;79.00;;;;;;5032703;28;20025;-26
2022/07/27 10:14:54;;;;;;;2.00;1.30;;;26.80;78.20;;;;;;5032653;28;20017;-26
2022/07/27 10:17:20;;;;;;;4.60;1.15;;;26.80;78.20;;;;;;5032522;28;20087;-25
2022/07/27 10:19:49;;;;;;;2.00;1.23;;;26.80;78.20;;;;;;5032039;28;20079;-25
2022/07/27 10:22:15;;;;;;;1.85;1.25;;;26.80;78.10;;;;;;5032630;28;20096;-26
2022/07/27 10:24:41;;;;;;;2.85;1.50;;;26.80;78.10;;;;;;5032662;28;20025;-26
2022/07/27 10:27:27;;;;;;;4.22;1.45;;;26.80;78.00;;;;;;5032309;28;20056;-26
2022/07/27 10:29:54;;;;;;;3.00;1.52;;;26.90;78.10;;;;;;5031608;28;20467;-26
2022/07/27 10:32:26;;;;;;;3.92;1.25;;;26.90;78.10;;;;;;5032478;28;20033;-26
2022/07/27 10:34:52;;;;;;;1.45;1.05;;;26.90;78.00;;;;;;5032430;28;20036;-26
2022/07/27 10:37:23;;;;;;;3.53;1.23;;;26.90;78.00;;;;;;5014660;28;20128;-26
2022/07/27 10:39:51;;;;;;;4.00;1.20;;;26.90;78.00;;;;;;5032806;28;20029;-26
2022/07/27 10:42:27;;;;;;;3.67;1.45;;;27.00;78.00;;;;;;5033181;28;20021;-25
2022/07/27 10:44:54;;;;;;;2.20;1.20;;;27.00;78.00;;;;;;5032719;28;20060;-26
2022/07/27 10:47:44;;;;;;;2.90;1.30;;;27.00;77.90;;;;;;5032674;28;20057;-25
2022/07/27 10:50:16;;;;;;;1.95;1.20;;;27.00;77.90;;;;;;5024498;28;20378;-26
2022/07/27 10:52:57;;;;;;;4.88;1.42;;;27.00;77.90;;;;;;5032015;28;20046;-25
2022/07/27 10:55:32;;;;;;;3.50;1.20;;;27.00;77.90;;;;;;5031987;28;20040;-25
2022/07/27 10:58:13;;;;;;;3.30;1.52;;;27.00;77.90;;;;;;5031910;28;20513;-26
2022/07/27 11:00:47;;;;;;;2.65;1.40;;;27.10;77.90;;;;;;5031885;28;20034;-26
2022/07/27 11:03:20;;;;;;;2.30;1.27;;;27.00;77.80;;;;;;5031728;28;20030;-26
2022/07/27 11:06:08;;;;;;;1.73;1.23;;;27.10;77.80;;;;;;5031814;28;20026;-25
2022/07/27 11:08:44;;;;;;;2.58;1.20;;;27.10;77.70;;;;;;5031730;28;20021;-26
2022/07/27 11:11:23;;;;;;;1.50;1.30;;;27.10;77.70;;;;;;5031845;28;20022;-26
2022/07/27 11:13:52;;;;;;;2.75;1.50;;;27.10;77.60;;;;;;5031735;28;20383;-26
2022/07/27 11:16:18;;;;;;;4.30;1.50;;;27.10;77.40;;;;;;5031764;28;20029;-26
2022/07/27 11:18:53;;;;;;;2.42;1.30;;;27.10;77.30;;;;;;5032026;28;20110;-26
2022/07/27 11:21:27;;;;;;;2.22;1.42;;;27.10;77.20;;;;;;5031826;28;20036;-26
2022/07/27 11:23:57;;;;;;;2.90;1.20;;;27.10;77.20;;;;;;5031856;28;20026;-27
2022/07/27 11:26:26;;;;;;;3.72;1.25;;;27.20;77.20;;;;;;5031590;28;20072;-27
2022/07/27 11:28:52;;;;;;;2.17;1.15;;;27.10;77.10;;;;;;5031596;28;20022;-27
2022/07/27 11:31:18;;;;;;;1.67;1.10;;;27.10;77.30;;;;;;5032079;28;20421;-26
2022/07/27 11:33:58;;;;;;;2.88;1.30;;;27.20;77.30;;;;;;5031615;28;20018;-26
2022/07/27 11:36:43;;;;;;;3.30;1.40;;;27.10;77.20;;;;;;5031951;28;20390;-26
2022/07/27 11:39:12;;;;;;;4.63;1.20;;;27.10;77.20;;;;;;5031473;28;20520;-26
2022/07/27 11:41:39;;;;;;;1.75;1.30;;;27.10;77.10;;;;;;5033045;28;20501;-26
2022/07/27 11:44:10;;;;;;;2.95;1.20;;;27.10;77.10;;;;;;5035395;28;20018;-26
2022/07/27 11:46:41;;;;;;;1.48;1.10;;;27.20;77.10;;;;;;5017603;28;20026;-26
2022/07/27 11:49:25;;;;;;;2.10;1.33;;;27.10;76.90;;;;;;5035000;28;20025;-26
2022/07/27 11:51:51;;;;;;;1.67;1.23;;;27.20;76.80;;;;;;5035162;28;20089;-26
2022/07/27 11:54:29;;;;;;;2.45;1.15;;;27.20;77.60;;;;;;5035188;28;20264;-26
2022/07/27 11:56:54;;;;;;;1.83;1.40;;;27.20;76.70;;;;;;5035181;28;20060;-26
2022/07/27 11:59:23;;;;;;;3.47;1.13;;;27.20;76.70;;;;;;5034873;28;20061;-26
2022/07/27 12:01:57;;;;;;;1.85;1.40;;;27.10;76.70;;;;;;5034839;28;20549;-26
2022/07/27 12:04:29;;;;;;;1.77;1.25;;;27.20;76.80;;;;;;5035051;28;20395;-26
2022/07/27 12:07:11;;;;;;;1.55;1.23;;;27.10;76.70;;;;;;5034890;28;20109;-26
2022/07/27 12:09:42;;;;;;;2.45;1.42;;;27.10;76.70;;;;;;5034780;28;20542;-26
2022/07/27 12:12:17;;;;;;;2.75;1.23;;;27.20;76.60;;;;;;5034722;28;20028;-26
2022/07/27 12:14:57;;;;;;;2.22;1.50;;;27.10;76.50;;;;;;5034903;28;20065;-26
2022/07/27 12:17:36;;;;;;;3.08;1.30;;;27.20;76.60;;;;;;5034765;28;20025;-26
2022/07/27 12:20:13;;;;;;;1.48;1.05;;;27.10;76.40;;;;;;5034516;28;20136;-25
2022/07/27 12:22:42;;;;;;;1.80;1.40;;;27.10;76.30;;;;;;5034613;28;20030;-25
2022/07/27 12:25:29;;;;;;;1.50;1.20;;;27.10;76.40;;;;;;5034597;28;20025;-25
2022/07/27 12:27:56;;;;;;;2.47;1.50;;;27.10;76.40;;;;;;5034475;28;20040;-25
2022/07/27 12:30:32;;;;;;;2.40;1.30;;;27.10;76.30;;;;;;5034124;28;20367;-25
2022/07/27 12:32:59;;;;;;;3.60;1.10;;;27.10;76.40;;;;;;5034351;28;20048;-25
2022/07/27 12:35:27;;;;;;;1.67;1.27;;;27.10;76.20;;;;;;5034394;28;20018;-25
2022/07/27 12:38:04;;;;;;;1.77;1.20;;;27.10;76.30;;;;;;5034566;28;20033;-25
2022/07/27 12:40:32;;;;;;;1.73;1.35;;;27.10;76.20;;;;;;5034209;28;20033;-25
2022/07/27 12:43:02;;;;;;;1.58;1.20;;;27.20;76.30;;;;;;5034333;28;20113;-25
2022/07/27 12:45:31;;;;;;;1.55;1.30;;;27.10;76.20;;;;;;5034137;28;20029;-25
2022/07/27 12:48:07;;;;;;;2.30;1.17;;;27.10;76.30;;;;;;5034220;28;20469;-25
2022/07/27 12:50:33;;;;;;;1.50;1.25;;;27.10;76.30;;;;;;5033950;28;20433;-25
2022/07/27 12:52:59;;;;;;;1.70;1.30;;;27.10;76.30;;;;;;5033729;28;20021;-25
2022/07/27 12:55:24;;;;;;;4.93;1.50;;;27.10;76.30;;;;;;5034106;28;20578;-25
2022/07/27 12:57:52;;;;;;;1.30;1.20;;;27.10;76.20;;;;;;5033912;28;20029;-25